Aviation Digital Data Service (ADDS)

Output produced by METARs form (1037 UTC 18 June 2019)
found at http://www.aviationweather.gov/metar/data/
 
Forecast for: KSYR (SYRACUSE , NY, US)
Text: KSYR 180528Z 1806/1906 VRB03KT P6SM SCT250
Forecast period: 0600 to 1300 UTC 18 June 2019
Forecast type: FROM: standard forecast or significant change
Winds: variable direction winds at 3 MPH (3 knots; 1.5 m/s)
Visibility: 6 or more miles 10+ km)
Ceiling: at least 12,000 feet AGL
Clouds: scattered clouds at 25000 feet AGL
Weather: no significant weather forecast for this period
Text: FM181300 00000KT P6SM BKN050
Forecast period: 1300 to 2100 UTC 18 June 2019
Forecast type: FROM: standard forecast or significant change
Winds: calm
Visibility: 6 or more miles 10+ km)
Ceiling: 5000 feet AGL
Clouds: broken clouds at 5000 feet AGL
Weather: no significant weather forecast for this period
Text: FM182100 00000KT P6SM SCT100
Forecast period: 2100 UTC 18 June 2019 to 0600 UTC 19 June 2019
Forecast type: FROM: standard forecast or significant change
Winds: calm
Visibility: 6 or more miles 10+ km)
Ceiling: at least 12,000 feet AGL
Clouds: scattered clouds at 10000 feet AGL
Weather: no significant weather forecast for this period